createdAt,value
2023-01-29T00:00:22.595Z,79483.13
2023-01-29T00:05:28.453Z,79499.16
2023-01-29T00:10:30.181Z,79485.13
2023-01-29T00:15:31.609Z,79479.09
2023-01-29T00:20:33.800Z,79483.13
2023-01-29T00:25:35.309Z,79477.09
2023-01-29T00:30:37.429Z,79471.09
2023-01-29T00:35:40.946Z,79461.06
2023-01-29T00:41:01.257Z,79449.03
2023-01-29T00:46:02.854Z,79453.03
2023-01-29T00:51:04.693Z,79459.03
2023-01-29T00:56:06.607Z,79449.03
2023-01-29T01:01:08.044Z,79455.03
2023-01-29T01:06:10.986Z,79461.06
2023-01-29T01:11:13.429Z,79451.03
2023-01-29T01:16:18.620Z,79461.06
2023-01-29T01:21:20.113Z,79455.03
2023-01-29T01:26:21.696Z,79441.00
2023-01-29T01:31:23.271Z,79453.03
2023-01-29T01:36:24.717Z,79447.00
2023-01-29T01:41:26.689Z,79467.06
2023-01-29T01:46:34.840Z,79481.09
2023-01-29T01:51:42.584Z,79483.13
2023-01-29T01:56:48.601Z,79457.03
2023-01-29T02:01:53.984Z,79445.00
2023-01-29T02:07:16.134Z,79434.97
2023-01-29T02:12:18.561Z,79443.00
2023-01-29T02:17:20.554Z,79475.09
2023-01-29T02:22:41.873Z,79473.09
2023-01-29T02:27:59.368Z,79432.97
2023-01-29T02:33:09.325Z,79418.94
2023-01-29T02:38:25.067Z,79380.81
2023-01-29T02:43:44.961Z,79396.88
2023-01-29T02:48:57.744Z,79374.81
2023-01-29T02:54:13.535Z,79380.81
2023-01-29T02:59:23.356Z,79392.84
2023-01-29T03:04:38.595Z,79402.88
2023-01-29T03:09:46.453Z,79418.94
2023-01-29T03:15:09.830Z,79402.88
2023-01-29T03:20:18.192Z,79394.88
2023-01-29T03:25:41.532Z,79392.84
2023-01-29T03:31:10.348Z,79380.81
2023-01-29T03:36:21.134Z,79396.88
2023-01-29T03:41:29.424Z,79400.88
2023-01-29T03:46:41.806Z,79404.91
2023-01-29T03:51:43.166Z,79400.88
2023-01-29T03:57:06.145Z,79400.88
2023-01-29T04:02:13.847Z,79400.88
2023-01-29T04:07:19.052Z,79396.88
2023-01-29T04:12:28.860Z,79380.81
2023-01-29T04:17:39.676Z,79374.81
2023-01-29T04:22:46.142Z,79362.78
2023-01-29T04:28:21.961Z,79350.75
2023-01-29T04:33:44.771Z,79336.69
2023-01-29T04:38:58.382Z,79304.59
2023-01-29T04:44:16.599Z,79284.56
2023-01-29T04:49:27.220Z,79294.59
2023-01-29T04:54:35.431Z,79274.53
2023-01-29T04:59:43.362Z,79270.50
2023-01-29T05:04:47.492Z,79248.44
2023-01-29T05:09:50.753Z,79264.50
2023-01-29T05:14:53.421Z,79276.53
2023-01-29T05:19:56.606Z,79238.41
2023-01-29T05:24:58.080Z,79220.38
2023-01-29T05:29:59.521Z,79214.34
2023-01-29T05:35:01.115Z,79206.34
2023-01-29T05:40:02.539Z,79204.31
2023-01-29T05:45:04.937Z,79186.28
2023-01-29T05:50:07.174Z,79188.28
2023-01-29T05:55:09.705Z,79188.28
2023-01-29T06:00:12.997Z,79182.25
2023-01-29T06:05:14.465Z,79184.28
2023-01-29T06:10:18.069Z,79174.25
2023-01-29T06:15:22.218Z,79182.25
2023-01-29T06:20:24.899Z,79174.25
2023-01-29T06:25:26.346Z,79180.25
2023-01-29T06:30:28.438Z,79162.22
2023-01-29T06:35:30.133Z,79172.25
2023-01-29T06:40:31.725Z,79170.22
2023-01-29T06:45:33.237Z,79188.28
2023-01-29T06:50:34.746Z,79180.25
2023-01-29T06:55:36.254Z,79162.22
2023-01-29T07:00:38.472Z,79148.16
2023-01-29T07:05:39.945Z,79168.22
2023-01-29T07:10:41.369Z,79158.19
2023-01-29T07:15:44.377Z,79164.22
2023-01-29T07:20:45.805Z,79154.19
2023-01-29T07:25:49.739Z,79154.19
2023-01-29T07:30:56.197Z,79150.19
2023-01-29T07:35:57.659Z,79144.16
2023-01-29T07:40:59.064Z,79130.13
2023-01-29T07:46:04.449Z,79132.13
2023-01-29T07:51:06.457Z,79136.13
2023-01-29T07:56:08.084Z,79146.16
2023-01-29T08:01:09.699Z,79156.19
2023-01-29T08:06:11.193Z,79132.13
2023-01-29T08:11:12.674Z,79124.09
2023-01-29T08:16:14.417Z,79116.09
2023-01-29T08:21:17.046Z,79134.13
2023-01-29T08:26:19.060Z,79146.16
2023-01-29T08:31:20.810Z,79154.19
2023-01-29T08:36:22.418Z,79158.19
2023-01-29T08:41:23.919Z,79154.19
2023-01-29T08:46:25.464Z,79154.19
2023-01-29T08:51:27.205Z,79144.16
2023-01-29T08:56:28.651Z,79150.19
2023-01-29T09:01:30.183Z,79154.19
2023-01-29T09:06:31.704Z,79142.16
2023-01-29T09:11:33.110Z,79128.13
2023-01-29T09:16:34.674Z,79116.09
2023-01-29T09:21:36.113Z,79128.13
2023-01-29T09:26:39.686Z,79114.06
2023-01-29T09:31:41.312Z,79118.09
2023-01-29T09:36:42.882Z,79106.06
2023-01-29T09:42:08.186Z,79106.06
2023-01-29T09:47:15.425Z,79112.06
2023-01-29T09:52:30.358Z,79102.03
2023-01-29T09:57:41.565Z,79090.00
2023-01-29T10:03:15.541Z,79065.94
2023-01-29T10:08:44.923Z,79049.91
2023-01-29T10:14:08.755Z,79047.91
2023-01-29T10:19:38.984Z,79047.91
2023-01-29T10:25:02.256Z,79055.91
2023-01-29T10:30:09.662Z,79055.91
2023-01-29T10:35:21.605Z,79017.81
2023-01-29T10:40:39.606Z,79029.84
2023-01-29T10:46:22.743Z,79025.84
2023-01-29T10:51:58.458Z,78995.75
2023-01-29T10:57:38.436Z,78987.72
2023-01-29T11:02:48.445Z,78973.69
2023-01-29T11:08:01.740Z,78969.69
2023-01-29T11:13:05.309Z,78909.50
2023-01-29T11:18:15.809Z,78899.50
2023-01-29T11:23:28.375Z,78921.53
2023-01-29T11:28:42.130Z,78917.53
2023-01-29T11:33:44.678Z,78907.50
2023-01-29T11:38:46.256Z,78901.50
2023-01-29T11:43:47.820Z,78905.50
2023-01-29T11:48:58.983Z,78891.47
2023-01-29T11:54:17.134Z,78865.41
2023-01-29T11:59:44.269Z,78861.38
2023-01-29T12:04:46.779Z,78857.38
2023-01-29T12:09:51.984Z,78851.34
2023-01-29T12:15:16.406Z,78865.41
2023-01-29T12:20:28.097Z,78875.41
2023-01-29T12:25:44.862Z,78877.44
2023-01-29T12:31:01.443Z,78889.47
2023-01-29T12:36:11.690Z,78863.38
2023-01-29T12:41:24.981Z,78863.38
2023-01-29T12:46:29.534Z,78851.34
2023-01-29T12:51:36.488Z,78841.31
2023-01-29T12:56:51.573Z,78849.34
2023-01-29T13:01:58.893Z,78837.31
2023-01-29T13:07:13.477Z,78835.31
2023-01-29T13:12:16.947Z,78841.31
2023-01-29T13:17:23.356Z,78839.31
2023-01-29T13:22:28.591Z,78847.34
2023-01-29T13:27:33.089Z,78839.31
2023-01-29T13:32:36.097Z,78831.31
2023-01-29T13:37:46.843Z,78835.31
2023-01-29T13:42:50.412Z,78833.31
2023-01-29T13:47:53.138Z,78815.25
2023-01-29T13:52:58.051Z,78797.22
2023-01-29T13:58:00.957Z,78787.19
2023-01-29T14:03:04.574Z,78809.25
2023-01-29T14:08:08.700Z,78797.22
2023-01-29T14:13:19.193Z,78769.13
2023-01-29T14:18:23.840Z,78769.13
2023-01-29T14:23:44.001Z,78767.13
2023-01-29T14:28:57.945Z,78757.09
2023-01-29T14:34:02.270Z,78743.06
2023-01-29T14:39:04.317Z,78741.06
2023-01-29T14:44:42.849Z,78735.03
2023-01-29T14:50:28.720Z,78733.03
2023-01-29T14:55:37.810Z,78712.97
2023-01-29T15:00:43.545Z,78706.97
2023-01-29T15:05:46.538Z,78717.00
2023-01-29T15:11:21.065Z,78700.94
2023-01-29T15:16:32.182Z,78668.88
2023-01-29T15:21:34.626Z,78670.88
2023-01-29T15:26:36.597Z,78664.84
2023-01-29T15:31:41.871Z,78658.84
2023-01-29T15:36:43.559Z,78666.84
2023-01-29T15:41:46.021Z,78662.84
2023-01-29T15:46:57.902Z,78644.81
2023-01-29T15:52:05.659Z,78642.78
2023-01-29T15:57:18.589Z,78634.78
2023-01-29T16:02:40.939Z,78628.75
2023-01-29T16:07:43.429Z,78644.81
2023-01-29T16:12:47.404Z,78626.75
2023-01-29T16:17:50.362Z,78606.69
2023-01-29T16:22:53.369Z,78624.75
2023-01-29T16:27:54.882Z,78600.69
2023-01-29T16:33:04.822Z,78592.66
2023-01-29T16:38:24.121Z,78580.63
2023-01-29T16:43:28.471Z,78574.63
2023-01-29T16:48:35.164Z,78572.59
2023-01-29T16:53:37.453Z,78562.59
2023-01-29T16:58:38.923Z,78564.59
2023-01-29T17:03:41.917Z,78554.56
2023-01-29T17:08:43.860Z,78558.56
2023-01-29T17:13:46.152Z,78534.50
2023-01-29T17:18:47.695Z,78540.53
2023-01-29T17:23:49.280Z,78528.50
2023-01-29T17:28:51.612Z,78522.47
2023-01-29T17:33:53.082Z,78524.47
2023-01-29T17:38:54.519Z,78516.47
2023-01-29T17:43:56.030Z,78510.44
2023-01-29T17:48:57.626Z,78502.44
2023-01-29T17:53:59.105Z,78496.41
2023-01-29T17:59:00.875Z,78508.44
2023-01-29T18:04:02.338Z,78492.41
2023-01-29T18:09:04.321Z,78486.38
2023-01-29T18:14:13.686Z,78472.34
2023-01-29T18:19:23.109Z,78470.34
2023-01-29T18:24:26.415Z,78476.34
2023-01-29T18:29:30.101Z,78464.31
2023-01-29T18:34:31.612Z,78462.31
2023-01-29T18:39:33.110Z,78450.28
2023-01-29T18:44:34.640Z,78456.31
2023-01-29T18:49:39.050Z,78438.25
2023-01-29T18:54:40.576Z,78420.22
2023-01-29T18:59:42.035Z,78402.16
2023-01-29T19:04:46.146Z,78400.16
2023-01-29T19:09:48.365Z,78404.16
2023-01-29T19:14:49.862Z,78398.16
2023-01-29T19:19:51.320Z,78394.13
2023-01-29T19:24:52.733Z,78364.06
2023-01-29T19:29:55.898Z,78360.06
2023-01-29T19:34:58.417Z,78352.03
2023-01-29T19:39:59.934Z,78344.00
2023-01-29T19:45:01.448Z,78329.97
2023-01-29T19:50:02.935Z,78323.97
2023-01-29T19:55:07.240Z,78329.97
2023-01-29T20:00:12.094Z,78305.91
2023-01-29T20:05:17.172Z,78307.91
2023-01-29T20:10:19.474Z,78309.94
2023-01-29T20:15:22.389Z,78301.91
2023-01-29T20:20:23.975Z,78293.88
2023-01-29T20:25:30.509Z,78283.84
2023-01-29T20:30:35.924Z,78275.84
2023-01-29T20:35:38.647Z,78263.81
2023-01-29T20:40:40.134Z,78263.81
2023-01-29T20:45:42.211Z,78265.81
2023-01-29T20:50:43.802Z,78261.81
2023-01-29T20:55:45.746Z,78259.78
2023-01-29T21:00:47.652Z,78233.72
2023-01-29T21:05:50.211Z,78217.69
2023-01-29T21:10:54.637Z,78229.72
2023-01-29T21:15:56.205Z,78219.69
2023-01-29T21:20:57.658Z,78201.66
2023-01-29T21:26:04.314Z,78207.66
2023-01-29T21:31:11.196Z,78175.59
2023-01-29T21:36:12.730Z,78165.56
2023-01-29T21:41:14.160Z,78151.53
2023-01-29T21:46:16.752Z,78153.53
2023-01-29T21:51:18.947Z,78155.53
2023-01-29T21:56:20.501Z,78157.53
2023-01-29T22:01:37.696Z,78153.53
2023-01-29T22:06:39.980Z,78133.47
2023-01-29T22:11:41.664Z,78109.41
2023-01-29T22:16:43.107Z,78107.41
2023-01-29T22:21:44.879Z,78069.31
2023-01-29T22:26:48.428Z,78055.28
2023-01-29T22:31:50.082Z,78045.25
2023-01-29T22:36:51.546Z,78037.22
2023-01-29T22:41:53.037Z,78021.19
2023-01-29T22:46:54.556Z,78015.19
2023-01-29T22:52:11.424Z,77989.09
2023-01-29T22:57:14.692Z,77959.03
2023-01-29T23:02:16.187Z,77967.06
2023-01-29T23:07:17.681Z,77955.03
2023-01-29T23:12:19.139Z,77957.03
2023-01-29T23:17:20.694Z,77953.03
2023-01-29T23:22:22.119Z,77941.00
2023-01-29T23:27:23.602Z,77922.94
2023-01-29T23:32:25.184Z,77920.94
2023-01-29T23:37:26.770Z,77928.97
2023-01-29T23:42:28.194Z,77912.91
2023-01-29T23:47:29.650Z,77876.84
2023-01-29T23:52:31.160Z,77872.81
2023-01-29T23:57:32.576Z,77850.75
